sensor_id;sensor_type;location;lat;lon;timestamp;temperature;humidity
50969;DHT22;36982;51.474;7.228;2022-09-21T00:01:52;8.60;99.90
50969;DHT22;36982;51.474;7.228;2022-09-21T00:04:17;8.60;99.90
50969;DHT22;36982;51.474;7.228;2022-09-21T00:06:44;8.60;99.90
50969;DHT22;36982;51.474;7.228;2022-09-21T00:09:10;8.50;99.90
50969;DHT22;36982;51.474;7.228;2022-09-21T00:11:36;8.50;99.90
50969;DHT22;36982;51.474;7.228;2022-09-21T00:14:10;8.50;99.90
50969;DHT22;36982;51.474;7.228;2022-09-21T00:16:37;8.60;99.90
50969;DHT22;36982;51.474;7.228;2022-09-21T00:19:03;8.60;99.90
50969;DHT22;36982;51.474;7.228;2022-09-21T00:21:29;8.60;99.90
50969;DHT22;36982;51.474;7.228;2022-09-21T00:23:54;8.60;99.90
50969;DHT22;36982;51.474;7.228;2022-09-21T00:26:25;8.50;99.90
50969;DHT22;36982;51.474;7.228;2022-09-21T00:28:53;8.40;99.90
50969;DHT22;36982;51.474;7.228;2022-09-21T00:31:19;8.30;99.90
50969;DHT22;36982;51.474;7.228;2022-09-21T00:33:45;8.40;99.90
50969;DHT22;36982;51.474;7.228;2022-09-21T00:36:13;8.50;99.90
50969;DHT22;36982;51.474;7.228;2022-09-21T00:38:40;8.50;99.90
50969;DHT22;36982;51.474;7.228;2022-09-21T00:41:08;8.50;99.90
50969;DHT22;36982;51.474;7.228;2022-09-21T00:43:41;8.50;99.90
50969;DHT22;36982;51.474;7.228;2022-09-21T00:46:25;8.40;99.90
50969;DHT22;36982;51.474;7.228;2022-09-21T00:48:52;8.40;99.90
50969;DHT22;36982;51.474;7.228;2022-09-21T00:51:18;8.40;99.90
50969;DHT22;36982;51.474;7.228;2022-09-21T00:53:44;8.40;99.90
50969;DHT22;36982;51.474;7.228;2022-09-21T00:56:11;8.40;99.90
50969;DHT22;36982;51.474;7.228;2022-09-21T00:58:43;8.30;99.90
50969;DHT22;36982;51.474;7.228;2022-09-21T01:01:10;8.20;99.90
50969;DHT22;36982;51.474;7.228;2022-09-21T01:03:37;8.20;99.90
50969;DHT22;36982;51.474;7.228;2022-09-21T01:06:03;8.20;99.90
50969;DHT22;36982;51.474;7.228;2022-09-21T01:08:29;8.20;99.90
50969;DHT22;36982;51.474;7.228;2022-09-21T01:17:59;8.20;99.90
50969;DHT22;36982;51.474;7.228;2022-09-21T01:20:06;8.20;99.90
50969;DHT22;36982;51.474;7.228;2022-09-21T01:22:40;8.10;99.90
50969;DHT22;36982;51.474;7.228;2022-09-21T01:30:43;8.00;99.90
50969;DHT22;36982;51.474;7.228;2022-09-21T01:33:14;7.90;99.90
50969;DHT22;36982;51.474;7.228;2022-09-21T01:35:48;7.90;99.90
50969;DHT22;36982;51.474;7.228;2022-09-21T01:38:34;7.90;99.90
50969;DHT22;36982;51.474;7.228;2022-09-21T01:41:03;7.90;99.90
50969;DHT22;36982;51.474;7.228;2022-09-21T01:43:40;8.00;99.90
50969;DHT22;36982;51.474;7.228;2022-09-21T01:46:11;8.00;99.90
50969;DHT22;36982;51.474;7.228;2022-09-21T01:48:43;8.00;99.90
50969;DHT22;36982;51.474;7.228;2022-09-21T01:51:11;8.00;99.90
50969;DHT22;36982;51.474;7.228;2022-09-21T01:56:27;8.00;99.90
50969;DHT22;36982;51.474;7.228;2022-09-21T02:01:50;7.90;99.90
50969;DHT22;36982;51.474;7.228;2022-09-21T02:04:18;7.80;99.90
50969;DHT22;36982;51.474;7.228;2022-09-21T02:06:45;7.90;99.90
50969;DHT22;36982;51.474;7.228;2022-09-21T02:09:12;7.90;99.90
50969;DHT22;36982;51.474;7.228;2022-09-21T02:11:39;7.90;99.90
50969;DHT22;36982;51.474;7.228;2022-09-21T02:14:11;7.80;99.90
50969;DHT22;36982;51.474;7.228;2022-09-21T02:16:46;7.90;99.90
50969;DHT22;36982;51.474;7.228;2022-09-21T02:19:45;7.90;99.90
50969;DHT22;36982;51.474;7.228;2022-09-21T02:22:32;7.90;99.90
50969;DHT22;36982;51.474;7.228;2022-09-21T02:25:12;7.90;99.90
50969;DHT22;36982;51.474;7.228;2022-09-21T02:27:53;7.90;99.90
50969;DHT22;36982;51.474;7.228;2022-09-21T02:30:24;7.90;99.90
50969;DHT22;36982;51.474;7.228;2022-09-21T02:35:45;7.90;99.90
50969;DHT22;36982;51.474;7.228;2022-09-21T02:46:17;7.70;99.90
50969;DHT22;36982;51.474;7.228;2022-09-21T02:48:50;7.70;99.90
50969;DHT22;36982;51.474;7.228;2022-09-21T02:51:23;7.70;99.90
50969;DHT22;36982;51.474;7.228;2022-09-21T02:53:51;7.70;99.90
50969;DHT22;36982;51.474;7.228;2022-09-21T02:56:18;7.80;99.90
50969;DHT22;36982;51.474;7.228;2022-09-21T02:58:49;7.80;99.90
50969;DHT22;36982;51.474;7.228;2022-09-21T03:01:19;7.70;99.90
50969;DHT22;36982;51.474;7.228;2022-09-21T03:03:47;7.70;99.90
50969;DHT22;36982;51.474;7.228;2022-09-21T03:06:12;7.70;99.90
50969;DHT22;36982;51.474;7.228;2022-09-21T03:08:39;7.70;99.90
50969;DHT22;36982;51.474;7.228;2022-09-21T03:11:06;7.70;99.90
50969;DHT22;36982;51.474;7.228;2022-09-21T03:13:31;7.80;99.90
50969;DHT22;36982;51.474;7.228;2022-09-21T03:16:03;7.60;99.90
50969;DHT22;36982;51.474;7.228;2022-09-21T03:18:29;7.60;99.90
50969;DHT22;36982;51.474;7.228;2022-09-21T03:20:55;7.70;99.90
50969;DHT22;36982;51.474;7.228;2022-09-21T03:23:20;7.50;99.90
50969;DHT22;36982;51.474;7.228;2022-09-21T03:25:46;7.60;99.90
50969;DHT22;36982;51.474;7.228;2022-09-21T03:28:13;7.50;99.90
50969;DHT22;36982;51.474;7.228;2022-09-21T03:30:39;7.50;99.90
50969;DHT22;36982;51.474;7.228;2022-09-21T03:33:05;7.50;99.90
50969;DHT22;36982;51.474;7.228;2022-09-21T03:35:31;7.50;99.90
50969;DHT22;36982;51.474;7.228;2022-09-21T03:38:00;7.80;99.90
50969;DHT22;36982;51.474;7.228;2022-09-21T03:40:26;7.70;99.90
50969;DHT22;36982;51.474;7.228;2022-09-21T03:42:53;7.70;99.90
50969;DHT22;36982;51.474;7.228;2022-09-21T03:45:19;7.70;99.90
50969;DHT22;36982;51.474;7.228;2022-09-21T03:47:46;7.80;99.90
50969;DHT22;36982;51.474;7.228;2022-09-21T03:50:13;7.70;99.90
50969;DHT22;36982;51.474;7.228;2022-09-21T03:52:39;7.70;99.90
50969;DHT22;36982;51.474;7.228;2022-09-21T03:55:06;7.60;99.90
50969;DHT22;36982;51.474;7.228;2022-09-21T03:57:33;7.70;99.90
50969;DHT22;36982;51.474;7.228;2022-09-21T04:00:00;7.70;99.90
50969;DHT22;36982;51.474;7.228;2022-09-21T04:02:27;7.70;99.90
50969;DHT22;36982;51.474;7.228;2022-09-21T04:04:53;7.70;99.90
50969;DHT22;36982;51.474;7.228;2022-09-21T04:07:18;7.70;99.90
50969;DHT22;36982;51.474;7.228;2022-09-21T04:09:44;7.70;99.90
50969;DHT22;36982;51.474;7.228;2022-09-21T04:12:09;7.60;99.90
50969;DHT22;36982;51.474;7.228;2022-09-21T04:14:35;7.60;99.90
50969;DHT22;36982;51.474;7.228;2022-09-21T04:17:01;7.60;99.90
50969;DHT22;36982;51.474;7.228;2022-09-21T04:19:26;7.60;99.90
50969;DHT22;36982;51.474;7.228;2022-09-21T04:21:52;7.60;99.90
50969;DHT22;36982;51.474;7.228;2022-09-21T04:24:18;7.50;99.90
50969;DHT22;36982;51.474;7.228;2022-09-21T04:26:44;7.60;99.90
50969;DHT22;36982;51.474;7.228;2022-09-21T04:29:14;7.60;99.90
50969;DHT22;36982;51.474;7.228;2022-09-21T04:31:40;7.60;99.90
50969;DHT22;36982;51.474;7.228;2022-09-21T04:34:07;7.60;99.90
50969;DHT22;36982;51.474;7.228;2022-09-21T04:36:33;7.50;99.90
50969;DHT22;36982;51.474;7.228;2022-09-21T04:39:00;7.40;99.90
50969;DHT22;36982;51.474;7.228;2022-09-21T04:41:25;7.40;99.90
50969;DHT22;36982;51.474;7.228;2022-09-21T04:43:51;7.30;99.90
50969;DHT22;36982;51.474;7.228;2022-09-21T04:46:18;7.40;99.90
50969;DHT22;36982;51.474;7.228;2022-09-21T04:48:44;7.50;99.90
50969;DHT22;36982;51.474;7.228;2022-09-21T04:51:11;7.60;99.90
50969;DHT22;36982;51.474;7.228;2022-09-21T04:53:38;7.40;99.90
50969;DHT22;36982;51.474;7.228;2022-09-21T04:56:15;7.50;99.90
50969;DHT22;36982;51.474;7.228;2022-09-21T04:58:41;7.40;99.90
50969;DHT22;36982;51.474;7.228;2022-09-21T05:01:07;7.40;99.90
50969;DHT22;36982;51.474;7.228;2022-09-21T05:03:33;7.30;99.90
50969;DHT22;36982;51.474;7.228;2022-09-21T05:05:59;7.30;99.90
50969;DHT22;36982;51.474;7.228;2022-09-21T05:08:26;7.30;99.90
50969;DHT22;36982;51.474;7.228;2022-09-21T05:11:12;7.30;99.90
50969;DHT22;36982;51.474;7.228;2022-09-21T05:13:39;7.30;99.90
50969;DHT22;36982;51.474;7.228;2022-09-21T05:16:05;7.30;99.90
50969;DHT22;36982;51.474;7.228;2022-09-21T05:18:30;7.30;99.90
50969;DHT22;36982;51.474;7.228;2022-09-21T05:20:58;7.30;99.90
50969;DHT22;36982;51.474;7.228;2022-09-21T05:23:24;7.30;99.90
50969;DHT22;36982;51.474;7.228;2022-09-21T05:25:50;7.30;99.90
50969;DHT22;36982;51.474;7.228;2022-09-21T05:28:18;7.20;99.90
50969;DHT22;36982;51.474;7.228;2022-09-21T05:30:47;7.20;99.90
50969;DHT22;36982;51.474;7.228;2022-09-21T05:33:18;7.20;99.90
50969;DHT22;36982;51.474;7.228;2022-09-21T05:38:21;7.30;99.90
50969;DHT22;36982;51.474;7.228;2022-09-21T05:40:47;7.30;99.90
50969;DHT22;36982;51.474;7.228;2022-09-21T05:43:15;7.30;99.90
50969;DHT22;36982;51.474;7.228;2022-09-21T05:45:44;7.30;99.90
50969;DHT22;36982;51.474;7.228;2022-09-21T05:48:16;7.30;99.90
50969;DHT22;36982;51.474;7.228;2022-09-21T05:53:47;7.40;99.90
50969;DHT22;36982;51.474;7.228;2022-09-21T05:56:23;7.50;99.90
50969;DHT22;36982;51.474;7.228;2022-09-21T06:03:58;7.50;99.90
50969;DHT22;36982;51.474;7.228;2022-09-21T06:06:24;7.50;99.90
50969;DHT22;36982;51.474;7.228;2022-09-21T06:08:50;7.50;99.90
50969;DHT22;36982;51.474;7.228;2022-09-21T06:11:15;7.60;99.90
50969;DHT22;36982;51.474;7.228;2022-09-21T06:13:41;7.70;99.90
50969;DHT22;36982;51.474;7.228;2022-09-21T06:16:07;7.70;99.90
50969;DHT22;36982;51.474;7.228;2022-09-21T06:18:40;7.90;99.90
50969;DHT22;36982;51.474;7.228;2022-09-21T06:21:07;7.70;99.90
50969;DHT22;36982;51.474;7.228;2022-09-21T06:23:33;7.70;99.90
50969;DHT22;36982;51.474;7.228;2022-09-21T06:25:58;7.80;99.90
50969;DHT22;36982;51.474;7.228;2022-09-21T06:28:24;7.90;99.90
50969;DHT22;36982;51.474;7.228;2022-09-21T06:30:51;8.10;99.90
50969;DHT22;36982;51.474;7.228;2022-09-21T06:33:17;8.10;99.90
50969;DHT22;36982;51.474;7.228;2022-09-21T06:36:05;8.20;99.90
50969;DHT22;36982;51.474;7.228;2022-09-21T06:38:31;8.10;99.90
50969;DHT22;36982;51.474;7.228;2022-09-21T06:41:03;8.30;99.90
50969;DHT22;36982;51.474;7.228;2022-09-21T06:43:30;8.40;99.90
50969;DHT22;36982;51.474;7.228;2022-09-21T06:45:58;8.30;99.90
50969;DHT22;36982;51.474;7.228;2022-09-21T06:48:25;8.50;99.90
50969;DHT22;36982;51.474;7.228;2022-09-21T06:50:56;8.60;99.90
50969;DHT22;36982;51.474;7.228;2022-09-21T06:53:22;8.60;99.90
50969;DHT22;36982;51.474;7.228;2022-09-21T06:55:48;8.70;99.90
50969;DHT22;36982;51.474;7.228;2022-09-21T06:58:13;8.80;99.90
50969;DHT22;36982;51.474;7.228;2022-09-21T07:00:39;8.80;99.90
50969;DHT22;36982;51.474;7.228;2022-09-21T07:03:04;8.90;99.90
50969;DHT22;36982;51.474;7.228;2022-09-21T07:05:31;9.20;99.90
50969;DHT22;36982;51.474;7.228;2022-09-21T07:07:58;9.10;99.90
50969;DHT22;36982;51.474;7.228;2022-09-21T07:10:24;9.20;99.90
50969;DHT22;36982;51.474;7.228;2022-09-21T07:12:50;9.20;99.90
50969;DHT22;36982;51.474;7.228;2022-09-21T07:15:17;9.20;99.90
50969;DHT22;36982;51.474;7.228;2022-09-21T07:17:44;9.40;99.90
50969;DHT22;36982;51.474;7.228;2022-09-21T07:20:09;9.40;99.90
50969;DHT22;36982;51.474;7.228;2022-09-21T07:22:35;9.40;99.90
50969;DHT22;36982;51.474;7.228;2022-09-21T07:25:02;9.40;99.90
50969;DHT22;36982;51.474;7.228;2022-09-21T07:27:29;9.50;99.90
50969;DHT22;36982;51.474;7.228;2022-09-21T07:29:55;9.60;99.90
50969;DHT22;36982;51.474;7.228;2022-09-21T07:32:21;9.60;99.90
50969;DHT22;36982;51.474;7.228;2022-09-21T07:34:46;9.80;99.90
50969;DHT22;36982;51.474;7.228;2022-09-21T07:37:13;9.90;99.90
50969;DHT22;36982;51.474;7.228;2022-09-21T07:39:39;10.00;99.90
50969;DHT22;36982;51.474;7.228;2022-09-21T07:42:05;10.10;99.90
50969;DHT22;36982;51.474;7.228;2022-09-21T07:44:31;10.20;99.90
50969;DHT22;36982;51.474;7.228;2022-09-21T07:46:57;10.20;99.90
50969;DHT22;36982;51.474;7.228;2022-09-21T07:49:23;10.20;99.90
50969;DHT22;36982;51.474;7.228;2022-09-21T07:51:48;10.40;99.90
50969;DHT22;36982;51.474;7.228;2022-09-21T07:54:14;10.50;99.90
50969;DHT22;36982;51.474;7.228;2022-09-21T07:56:40;10.50;99.90
50969;DHT22;36982;51.474;7.228;2022-09-21T07:59:07;10.60;99.90
50969;DHT22;36982;51.474;7.228;2022-09-21T08:01:35;10.60;99.90
50969;DHT22;36982;51.474;7.228;2022-09-21T08:04:02;10.70;99.90
50969;DHT22;36982;51.474;7.228;2022-09-21T08:06:29;10.80;99.90
50969;DHT22;36982;51.474;7.228;2022-09-21T08:08:57;10.90;99.90
50969;DHT22;36982;51.474;7.228;2022-09-21T08:11:24;11.00;99.90
50969;DHT22;36982;51.474;7.228;2022-09-21T08:13:55;11.00;99.90
50969;DHT22;36982;51.474;7.228;2022-09-21T08:16:21;11.20;99.90
50969;DHT22;36982;51.474;7.228;2022-09-21T08:18:47;11.30;99.90
50969;DHT22;36982;51.474;7.228;2022-09-21T08:21:13;11.40;99.90
50969;DHT22;36982;51.474;7.228;2022-09-21T08:23:38;11.50;99.90
50969;DHT22;36982;51.474;7.228;2022-09-21T08:26:07;11.50;99.90
50969;DHT22;36982;51.474;7.228;2022-09-21T08:28:35;11.50;99.90
50969;DHT22;36982;51.474;7.228;2022-09-21T08:31:02;11.60;99.90
50969;DHT22;36982;51.474;7.228;2022-09-21T08:33:29;11.70;99.90
50969;DHT22;36982;51.474;7.228;2022-09-21T08:35:57;11.70;99.90
50969;DHT22;36982;51.474;7.228;2022-09-21T08:38:23;11.80;99.90
50969;DHT22;36982;51.474;7.228;2022-09-21T08:40:51;11.80;99.90
50969;DHT22;36982;51.474;7.228;2022-09-21T08:43:41;12.00;99.90
50969;DHT22;36982;51.474;7.228;2022-09-21T08:46:24;11.90;99.90
50969;DHT22;36982;51.474;7.228;2022-09-21T08:48:58;12.00;99.90
50969;DHT22;36982;51.474;7.228;2022-09-21T08:51:31;12.40;99.90
50969;DHT22;36982;51.474;7.228;2022-09-21T08:54:02;12.30;99.90
50969;DHT22;36982;51.474;7.228;2022-09-21T08:56:29;12.40;99.90
50969;DHT22;36982;51.474;7.228;2022-09-21T08:58:55;12.50;99.90
50969;DHT22;36982;51.474;7.228;2022-09-21T09:04:23;12.70;99.90
50969;DHT22;36982;51.474;7.228;2022-09-21T09:09:53;12.90;99.90
50969;DHT22;36982;51.474;7.228;2022-09-21T09:12:53;13.00;99.90
50969;DHT22;36982;51.474;7.228;2022-09-21T09:20:55;13.20;99.90
50969;DHT22;36982;51.474;7.228;2022-09-21T09:23:27;13.30;99.90
50969;DHT22;36982;51.474;7.228;2022-09-21T09:26:00;13.20;99.90
50969;DHT22;36982;51.474;7.228;2022-09-21T09:28:41;13.10;99.90
50969;DHT22;36982;51.474;7.228;2022-09-21T09:31:49;13.20;99.90
50969;DHT22;36982;51.474;7.228;2022-09-21T09:34:31;13.30;99.90
50969;DHT22;36982;51.474;7.228;2022-09-21T09:37:00;13.40;99.90
50969;DHT22;36982;51.474;7.228;2022-09-21T09:39:30;13.50;99.90
50969;DHT22;36982;51.474;7.228;2022-09-21T09:42:12;13.60;99.90
50969;DHT22;36982;51.474;7.228;2022-09-21T09:47:37;13.50;99.90
50969;DHT22;36982;51.474;7.228;2022-09-21T09:50:19;13.50;99.90
50969;DHT22;36982;51.474;7.228;2022-09-21T09:52:49;13.60;99.90
50969;DHT22;36982;51.474;7.228;2022-09-21T09:55:24;13.70;99.90
50969;DHT22;36982;51.474;7.228;2022-09-21T09:57:52;13.80;99.90
50969;DHT22;36982;51.474;7.228;2022-09-21T10:00:19;13.70;99.90
50969;DHT22;36982;51.474;7.228;2022-09-21T10:02:51;13.80;99.90
50969;DHT22;36982;51.474;7.228;2022-09-21T10:05:24;13.90;99.90
50969;DHT22;36982;51.474;7.228;2022-09-21T10:07:55;14.00;99.90
50969;DHT22;36982;51.474;7.228;2022-09-21T10:12:54;14.20;99.90
50969;DHT22;36982;51.474;7.228;2022-09-21T10:15:23;14.20;99.90
50969;DHT22;36982;51.474;7.228;2022-09-21T10:18:00;14.20;99.90
50969;DHT22;36982;51.474;7.228;2022-09-21T10:20:28;14.20;99.90
50969;DHT22;36982;51.474;7.228;2022-09-21T10:22:55;14.20;99.90
50969;DHT22;36982;51.474;7.228;2022-09-21T10:25:21;14.30;99.90
50969;DHT22;36982;51.474;7.228;2022-09-21T10:27:49;14.40;99.90
50969;DHT22;36982;51.474;7.228;2022-09-21T10:30:31;14.60;99.90
50969;DHT22;36982;51.474;7.228;2022-09-21T10:32:58;14.70;99.90
50969;DHT22;36982;51.474;7.228;2022-09-21T10:35:25;14.90;99.90
50969;DHT22;36982;51.474;7.228;2022-09-21T10:38:17;14.90;99.90
50969;DHT22;36982;51.474;7.228;2022-09-21T10:40:44;14.70;99.90
50969;DHT22;36982;51.474;7.228;2022-09-21T10:43:28;14.60;99.90
50969;DHT22;36982;51.474;7.228;2022-09-21T10:45:56;14.70;99.90
50969;DHT22;36982;51.474;7.228;2022-09-21T10:48:23;14.70;99.90
50969;DHT22;36982;51.474;7.228;2022-09-21T10:50:51;14.70;99.90
50969;DHT22;36982;51.474;7.228;2022-09-21T10:53:27;14.80;99.90
50969;DHT22;36982;51.474;7.228;2022-09-21T11:01:35;15.00;99.90
50969;DHT22;36982;51.474;7.228;2022-09-21T11:04:12;15.10;99.90
50969;DHT22;36982;51.474;7.228;2022-09-21T11:06:46;15.10;99.90
50969;DHT22;36982;51.474;7.228;2022-09-21T11:09:23;15.10;99.90
50969;DHT22;36982;51.474;7.228;2022-09-21T11:14:51;15.30;99.90
50969;DHT22;36982;51.474;7.228;2022-09-21T11:20:42;15.40;99.90
50969;DHT22;36982;51.474;7.228;2022-09-21T11:23:23;15.60;99.90
50969;DHT22;36982;51.474;7.228;2022-09-21T11:26:06;15.60;99.80
50969;DHT22;36982;51.474;7.228;2022-09-21T11:28:40;15.70;99.90
50969;DHT22;36982;51.474;7.228;2022-09-21T11:45:24;16.30;98.70
50969;DHT22;36982;51.474;7.228;2022-09-21T11:50:53;16.40;96.80
50969;DHT22;36982;51.474;7.228;2022-09-21T11:53:45;16.40;97.30
50969;DHT22;36982;51.474;7.228;2022-09-21T11:59:35;16.20;96.90
50969;DHT22;36982;51.474;7.228;2022-09-21T12:10:38;15.90;96.20
50969;DHT22;36982;51.474;7.228;2022-09-21T12:13:20;15.90;96.50
50969;DHT22;36982;51.474;7.228;2022-09-21T12:16:12;15.90;96.90
50969;DHT22;36982;51.474;7.228;2022-09-21T12:21:29;16.00;96.30
50969;DHT22;36982;51.474;7.228;2022-09-21T12:24:04;15.90;95.70
50969;DHT22;36982;51.474;7.228;2022-09-21T12:26:45;15.90;95.50
50969;DHT22;36982;51.474;7.228;2022-09-21T12:29:26;16.00;95.80
50969;DHT22;36982;51.474;7.228;2022-09-21T12:34:43;15.80;94.50
50969;DHT22;36982;51.474;7.228;2022-09-21T12:42:48;15.90;94.10
50969;DHT22;36982;51.474;7.228;2022-09-21T12:45:37;16.00;94.40
50969;DHT22;36982;51.474;7.228;2022-09-21T12:48:21;16.10;94.00
50969;DHT22;36982;51.474;7.228;2022-09-21T12:53:22;16.40;96.10
50969;DHT22;36982;51.474;7.228;2022-09-21T13:03:59;16.90;96.30
50969;DHT22;36982;51.474;7.228;2022-09-21T13:06:43;16.80;95.80
50969;DHT22;36982;51.474;7.228;2022-09-21T13:09:14;16.90;95.60
50969;DHT22;36982;51.474;7.228;2022-09-21T13:14:15;16.90;95.20
50969;DHT22;36982;51.474;7.228;2022-09-21T13:16:42;16.90;94.90
50969;DHT22;36982;51.474;7.228;2022-09-21T13:19:19;16.70;96.30
50969;DHT22;36982;51.474;7.228;2022-09-21T13:21:46;16.60;95.50
50969;DHT22;36982;51.474;7.228;2022-09-21T13:24:32;16.60;95.80
50969;DHT22;36982;51.474;7.228;2022-09-21T13:26:58;16.50;94.90
50969;DHT22;36982;51.474;7.228;2022-09-21T13:29:31;16.40;94.40
50969;DHT22;36982;51.474;7.228;2022-09-21T13:39:36;16.60;93.80
50969;DHT22;36982;51.474;7.228;2022-09-21T13:44:55;16.70;93.20
50969;DHT22;36982;51.474;7.228;2022-09-21T13:47:40;16.80;93.20
50969;DHT22;36982;51.474;7.228;2022-09-21T13:50:26;17.00;93.50
50969;DHT22;36982;51.474;7.228;2022-09-21T13:53:18;17.00;94.20
50969;DHT22;36982;51.474;7.228;2022-09-21T13:55:52;17.00;93.60
50969;DHT22;36982;51.474;7.228;2022-09-21T13:58:23;17.10;94.00
50969;DHT22;36982;51.474;7.228;2022-09-21T14:00:59;17.20;93.90
50969;DHT22;36982;51.474;7.228;2022-09-21T14:03:38;17.30;92.50
50969;DHT22;36982;51.474;7.228;2022-09-21T14:06:25;17.40;91.70
50969;DHT22;36982;51.474;7.228;2022-09-21T14:08:58;17.50;91.80
50969;DHT22;36982;51.474;7.228;2022-09-21T14:27:46;17.90;87.80
50969;DHT22;36982;51.474;7.228;2022-09-21T14:30:27;17.70;89.60
50969;DHT22;36982;51.474;7.228;2022-09-21T14:35:30;17.70;90.10
50969;DHT22;36982;51.474;7.228;2022-09-21T14:38:04;17.80;89.80
50969;DHT22;36982;51.474;7.228;2022-09-21T14:40:36;17.70;91.30
50969;DHT22;36982;51.474;7.228;2022-09-21T14:43:09;17.30;91.30
50969;DHT22;36982;51.474;7.228;2022-09-21T14:51:04;17.30;91.00
50969;DHT22;36982;51.474;7.228;2022-09-21T15:01:59;17.30;91.10
50969;DHT22;36982;51.474;7.228;2022-09-21T15:04:45;17.20;91.10
50969;DHT22;36982;51.474;7.228;2022-09-21T15:10:21;17.10;90.90
50969;DHT22;36982;51.474;7.228;2022-09-21T15:13:16;16.80;91.30
50969;DHT22;36982;51.474;7.228;2022-09-21T15:21:44;16.60;91.30
50969;DHT22;36982;51.474;7.228;2022-09-21T15:24:30;16.60;91.80
50969;DHT22;36982;51.474;7.228;2022-09-21T15:27:13;16.60;91.00
50969;DHT22;36982;51.474;7.228;2022-09-21T15:29:46;16.60;91.30
50969;DHT22;36982;51.474;7.228;2022-09-21T15:32:35;16.60;91.40
50969;DHT22;36982;51.474;7.228;2022-09-21T15:35:25;16.70;91.20
50969;DHT22;36982;51.474;7.228;2022-09-21T15:37:52;16.60;91.20
50969;DHT22;36982;51.474;7.228;2022-09-21T15:40:21;16.50;90.80
50969;DHT22;36982;51.474;7.228;2022-09-21T15:45:26;16.40;91.40
50969;DHT22;36982;51.474;7.228;2022-09-21T15:47:52;16.40;91.40
50969;DHT22;36982;51.474;7.228;2022-09-21T15:50:19;16.40;91.60
50969;DHT22;36982;51.474;7.228;2022-09-21T15:52:49;16.30;91.50
50969;DHT22;36982;51.474;7.228;2022-09-21T15:55:18;16.20;91.20
50969;DHT22;36982;51.474;7.228;2022-09-21T15:57:47;16.20;92.00
50969;DHT22;36982;51.474;7.228;2022-09-21T16:02:40;16.20;92.40
50969;DHT22;36982;51.474;7.228;2022-09-21T16:05:11;16.10;92.00
50969;DHT22;36982;51.474;7.228;2022-09-21T16:07:38;16.00;92.40
50969;DHT22;36982;51.474;7.228;2022-09-21T16:12:59;15.90;93.00
50969;DHT22;36982;51.474;7.228;2022-09-21T16:15:27;15.90;93.40
50969;DHT22;36982;51.474;7.228;2022-09-21T16:18:01;15.90;93.30
50969;DHT22;36982;51.474;7.228;2022-09-21T16:20:46;16.00;93.60
50969;DHT22;36982;51.474;7.228;2022-09-21T16:23:20;15.70;93.80
50969;DHT22;36982;51.474;7.228;2022-09-21T16:25:57;15.80;94.10
50969;DHT22;36982;51.474;7.228;2022-09-21T16:28:28;15.80;94.20
50969;DHT22;36982;51.474;7.228;2022-09-21T16:30:54;15.60;94.20
50969;DHT22;36982;51.474;7.228;2022-09-21T16:38:43;15.50;94.70
50969;DHT22;36982;51.474;7.228;2022-09-21T16:41:09;15.50;95.00
50969;DHT22;36982;51.474;7.228;2022-09-21T16:43:35;15.50;95.10
50969;DHT22;36982;51.474;7.228;2022-09-21T16:46:04;15.40;94.80
50969;DHT22;36982;51.474;7.228;2022-09-21T16:48:32;15.40;95.00
50969;DHT22;36982;51.474;7.228;2022-09-21T16:50:58;15.50;95.10
50969;DHT22;36982;51.474;7.228;2022-09-21T16:53:24;15.40;95.00
50969;DHT22;36982;51.474;7.228;2022-09-21T16:55:50;15.40;95.10
50969;DHT22;36982;51.474;7.228;2022-09-21T16:58:18;15.40;95.00
50969;DHT22;36982;51.474;7.228;2022-09-21T17:00:45;15.30;95.10
50969;DHT22;36982;51.474;7.228;2022-09-21T17:03:11;15.20;95.00
50969;DHT22;36982;51.474;7.228;2022-09-21T17:05:39;15.20;95.10
50969;DHT22;36982;51.474;7.228;2022-09-21T17:08:05;15.20;95.30
50969;DHT22;36982;51.474;7.228;2022-09-21T17:10:36;15.20;95.40
50969;DHT22;36982;51.474;7.228;2022-09-21T17:13:02;15.20;95.20
50969;DHT22;36982;51.474;7.228;2022-09-21T17:15:31;15.20;95.30
50969;DHT22;36982;51.474;7.228;2022-09-21T17:17:57;15.10;95.40
50969;DHT22;36982;51.474;7.228;2022-09-21T17:20:35;15.10;95.80
50969;DHT22;36982;51.474;7.228;2022-09-21T17:23:01;15.00;97.80
50969;DHT22;36982;51.474;7.228;2022-09-21T17:25:28;14.70;98.40
50969;DHT22;36982;51.474;7.228;2022-09-21T17:27:55;14.60;98.30
50969;DHT22;36982;51.474;7.228;2022-09-21T17:30:24;14.60;98.20
50969;DHT22;36982;51.474;7.228;2022-09-21T17:32:50;14.60;99.00
50969;DHT22;36982;51.474;7.228;2022-09-21T17:35:25;14.50;99.60
50969;DHT22;36982;51.474;7.228;2022-09-21T17:37:54;14.30;99.90
50969;DHT22;36982;51.474;7.228;2022-09-21T17:40:20;14.10;99.90
50969;DHT22;36982;51.474;7.228;2022-09-21T17:42:47;14.10;99.90
50969;DHT22;36982;51.474;7.228;2022-09-21T17:47:49;13.80;99.90
50969;DHT22;36982;51.474;7.228;2022-09-21T17:50:22;13.70;99.90
50969;DHT22;36982;51.474;7.228;2022-09-21T17:52:50;13.60;99.90
50969;DHT22;36982;51.474;7.228;2022-09-21T17:55:35;13.40;99.90
50969;DHT22;36982;51.474;7.228;2022-09-21T17:58:17;13.30;99.90
50969;DHT22;36982;51.474;7.228;2022-09-21T18:03:30;13.20;99.90
50969;DHT22;36982;51.474;7.228;2022-09-21T18:05:57;13.10;99.90
50969;DHT22;36982;51.474;7.228;2022-09-21T18:08:30;13.00;99.90
50969;DHT22;36982;51.474;7.228;2022-09-21T18:22:40;12.60;99.90
50969;DHT22;36982;51.474;7.228;2022-09-21T18:25:13;12.50;99.90
50969;DHT22;36982;51.474;7.228;2022-09-21T18:27:41;12.50;99.90
50969;DHT22;36982;51.474;7.228;2022-09-21T18:30:10;12.50;99.90
50969;DHT22;36982;51.474;7.228;2022-09-21T18:33:38;12.50;99.90
50969;DHT22;36982;51.474;7.228;2022-09-21T18:53:15;12.10;99.90
50969;DHT22;36982;51.474;7.228;2022-09-21T18:55:43;12.10;99.90
50969;DHT22;36982;51.474;7.228;2022-09-21T18:58:13;12.00;99.90
50969;DHT22;36982;51.474;7.228;2022-09-21T19:00:40;12.00;99.90
50969;DHT22;36982;51.474;7.228;2022-09-21T19:03:10;12.00;99.90
50969;DHT22;36982;51.474;7.228;2022-09-21T19:05:38;11.90;99.90
50969;DHT22;36982;51.474;7.228;2022-09-21T19:10:36;11.80;99.90
50969;DHT22;36982;51.474;7.228;2022-09-21T19:13:17;11.80;99.90
50969;DHT22;36982;51.474;7.228;2022-09-21T19:18:41;11.70;99.90
50969;DHT22;36982;51.474;7.228;2022-09-21T19:21:32;11.60;99.90
50969;DHT22;36982;51.474;7.228;2022-09-21T19:29:31;11.60;99.90
50969;DHT22;36982;51.474;7.228;2022-09-21T19:31:59;11.60;99.90
50969;DHT22;36982;51.474;7.228;2022-09-21T19:34:25;11.60;99.90
50969;DHT22;36982;51.474;7.228;2022-09-21T19:36:52;11.60;99.90
50969;DHT22;36982;51.474;7.228;2022-09-21T19:39:22;11.60;99.90
50969;DHT22;36982;51.474;7.228;2022-09-21T19:42:07;11.60;99.90
50969;DHT22;36982;51.474;7.228;2022-09-21T19:45:01;11.50;99.90
50969;DHT22;36982;51.474;7.228;2022-09-21T19:47:32;11.40;99.90
50969;DHT22;36982;51.474;7.228;2022-09-21T19:50:30;11.30;99.90
50969;DHT22;36982;51.474;7.228;2022-09-21T19:53:00;11.30;99.90